createdAt,value
2018-03-29T00:00:28.344Z,5.05
2018-03-29T00:00:59.972Z,4.68
2018-03-29T00:01:31.618Z,4.78
2018-03-29T00:02:03.295Z,5.00
2018-03-29T00:02:34.953Z,4.80
2018-03-29T00:03:06.568Z,4.70
2018-03-29T00:03:38.180Z,5.25
2018-03-29T00:04:09.880Z,5.47
2018-03-29T00:04:41.512Z,5.20
2018-03-29T00:05:13.159Z,5.20
2018-03-29T00:05:44.830Z,5.75
2018-03-29T00:06:16.480Z,6.12
2018-03-29T00:06:48.195Z,4.72
2018-03-29T00:07:19.836Z,5.78
2018-03-29T00:07:51.448Z,5.35
2018-03-29T00:08:23.122Z,5.93
2018-03-29T00:08:54.776Z,5.40
2018-03-29T00:09:26.410Z,5.78
2018-03-29T00:09:58.044Z,5.30
2018-03-29T00:10:29.705Z,5.60
2018-03-29T00:11:01.304Z,5.43
2018-03-29T00:11:32.956Z,5.90
2018-03-29T00:12:04.620Z,5.90
2018-03-29T00:12:36.266Z,5.75
2018-03-29T00:13:07.906Z,5.68
2018-03-29T00:13:39.552Z,6.25
2018-03-29T00:14:11.182Z,5.30
2018-03-29T00:14:42.886Z,6.37
2018-03-29T00:15:14.520Z,6.55
2018-03-29T00:15:46.176Z,6.22
2018-03-29T00:16:17.793Z,7.30
2018-03-29T00:16:49.423Z,6.55
2018-03-29T00:17:21.082Z,7.18
2018-03-29T00:17:52.712Z,6.60
2018-03-29T00:18:24.338Z,6.37
2018-03-29T00:18:55.970Z,7.25
2018-03-29T00:19:27.590Z,6.78
2018-03-29T00:19:59.208Z,6.95
2018-03-29T00:20:30.848Z,7.15
2018-03-29T00:21:02.503Z,7.57
2018-03-29T00:21:34.175Z,7.65
2018-03-29T00:22:05.828Z,6.97
2018-03-29T00:22:37.452Z,8.23
2018-03-29T00:23:09.113Z,7.40
2018-03-29T00:23:40.764Z,7.82
2018-03-29T00:24:12.390Z,7.28
2018-03-29T00:24:44.028Z,7.57
2018-03-29T00:25:15.717Z,9.48
2018-03-29T00:25:47.343Z,8.30
2018-03-29T00:26:18.970Z,8.10
2018-03-29T00:26:50.594Z,8.77
2018-03-29T00:27:22.248Z,8.77
2018-03-29T00:27:53.912Z,9.13
2018-03-29T00:28:25.534Z,9.77
2018-03-29T00:28:57.156Z,9.10
2018-03-29T00:29:28.813Z,8.95
2018-03-29T00:30:00.462Z,8.02
2018-03-29T00:30:32.082Z,8.77
2018-03-29T00:31:03.717Z,9.35
2018-03-29T00:31:35.351Z,8.63
2018-03-29T00:32:06.989Z,9.65
2018-03-29T00:32:38.610Z,9.43
2018-03-29T00:33:10.245Z,9.30
2018-03-29T00:33:41.934Z,8.93
2018-03-29T00:34:13.614Z,9.40
2018-03-29T00:34:45.289Z,8.98
2018-03-29T00:35:16.941Z,10.00
2018-03-29T00:35:48.567Z,9.05
2018-03-29T00:36:20.284Z,9.40
2018-03-29T00:36:51.910Z,9.75
2018-03-29T00:37:23.549Z,9.82
2018-03-29T00:37:55.202Z,10.55
2018-03-29T00:38:26.841Z,9.82
2018-03-29T00:38:58.460Z,10.50
2018-03-29T00:39:30.111Z,9.73
2018-03-29T00:40:01.836Z,11.65
2018-03-29T00:40:33.440Z,10.55
2018-03-29T00:41:05.117Z,10.63
2018-03-29T00:41:36.765Z,12.00
2018-03-29T00:42:08.433Z,11.18
2018-03-29T00:42:40.050Z,11.15
2018-03-29T00:43:11.689Z,11.60
2018-03-29T00:43:43.324Z,11.65
2018-03-29T00:44:15.010Z,11.02
2018-03-29T00:44:46.626Z,11.20
2018-03-29T00:45:18.305Z,12.00
2018-03-29T00:45:49.966Z,11.48
2018-03-29T00:46:21.629Z,10.32
2018-03-29T00:46:53.327Z,10.62
2018-03-29T00:47:24.988Z,11.60
2018-03-29T00:47:56.650Z,11.12
2018-03-29T00:48:28.270Z,11.80
2018-03-29T00:48:59.918Z,11.80
2018-03-29T00:49:31.538Z,11.55
2018-03-29T00:50:03.219Z,11.55
2018-03-29T00:50:34.888Z,11.88
2018-03-29T00:51:06.516Z,11.95
2018-03-29T00:51:38.164Z,12.37
2018-03-29T00:52:09.815Z,11.43
2018-03-29T00:52:41.466Z,12.18
2018-03-29T00:53:31.796Z,12.82
2018-03-29T00:54:03.405Z,12.07
2018-03-29T00:54:35.046Z,10.55
2018-03-29T00:55:06.712Z,12.37
2018-03-29T00:55:38.362Z,12.85
2018-03-29T00:56:09.988Z,11.82
2018-03-29T00:56:41.640Z,11.95
2018-03-29T00:57:13.258Z,11.70
2018-03-29T00:57:44.874Z,12.57
2018-03-29T00:58:16.573Z,12.93
2018-03-29T00:58:48.190Z,11.93
2018-03-29T00:59:19.861Z,11.65
2018-03-29T00:59:51.509Z,12.65
2018-03-29T01:00:23.193Z,12.63
2018-03-29T01:00:54.839Z,12.05
2018-03-29T01:01:26.456Z,11.95
2018-03-29T01:01:58.089Z,12.52
2018-03-29T01:02:29.771Z,11.35
2018-03-29T01:03:01.406Z,12.73
2018-03-29T01:03:33.036Z,12.55
2018-03-29T01:04:04.721Z,13.60
2018-03-29T01:04:36.384Z,13.38
2018-03-29T01:05:08.074Z,13.68
2018-03-29T01:05:39.740Z,13.15
2018-03-29T01:06:11.412Z,12.95
2018-03-29T01:06:43.076Z,12.75
2018-03-29T01:07:14.706Z,12.85
2018-03-29T01:07:46.394Z,13.88
2018-03-29T01:08:18.001Z,13.35
2018-03-29T01:08:49.649Z,12.52
2018-03-29T01:09:21.291Z,13.18
2018-03-29T01:09:52.962Z,12.65
2018-03-29T01:10:24.571Z,12.57
2018-03-29T01:10:56.240Z,13.15
2018-03-29T01:11:27.890Z,11.05
2018-03-29T01:11:59.572Z,11.65
2018-03-29T01:12:31.198Z,13.57
2018-03-29T01:13:02.826Z,12.98
2018-03-29T01:13:34.466Z,12.37
2018-03-29T01:14:06.098Z,12.98
2018-03-29T01:14:37.767Z,12.60
2018-03-29T01:15:09.424Z,13.40
2018-03-29T01:15:41.074Z,12.25
2018-03-29T01:16:12.728Z,12.63
2018-03-29T01:16:44.372Z,13.32
2018-03-29T01:17:16.111Z,13.55
2018-03-29T01:17:47.774Z,13.93
2018-03-29T01:18:19.452Z,12.98
2018-03-29T01:18:51.125Z,13.52
2018-03-29T01:19:22.762Z,13.62
2018-03-29T01:19:54.412Z,13.35
2018-03-29T01:20:26.114Z,13.65
2018-03-29T01:20:57.795Z,14.07
2018-03-29T01:21:29.500Z,13.77
2018-03-29T01:22:01.155Z,13.55
2018-03-29T01:22:32.842Z,13.25
2018-03-29T01:23:04.552Z,14.00
2018-03-29T01:23:36.180Z,13.20
2018-03-29T01:24:08.192Z,14.65
2018-03-29T01:24:39.824Z,15.93
2018-03-29T01:25:11.486Z,14.30
2018-03-29T01:25:43.111Z,14.80
2018-03-29T01:26:14.758Z,14.45
2018-03-29T01:26:46.398Z,13.80
2018-03-29T01:27:18.074Z,12.32
2018-03-29T01:27:49.711Z,15.20
2018-03-29T01:28:21.365Z,14.57
2018-03-29T01:28:52.990Z,14.18
2018-03-29T01:29:24.629Z,14.48
2018-03-29T01:29:56.264Z,14.18
2018-03-29T01:30:27.922Z,13.27
2018-03-29T01:30:59.572Z,14.85
2018-03-29T01:31:31.234Z,14.45
2018-03-29T01:32:02.891Z,13.85
2018-03-29T01:32:37.447Z,13.90
2018-03-29T01:33:09.093Z,14.73
2018-03-29T01:33:40.708Z,14.95
2018-03-29T01:34:12.361Z,14.18
2018-03-29T01:34:43.987Z,14.40
2018-03-29T01:35:15.605Z,14.68
2018-03-29T01:35:47.304Z,15.05
2018-03-29T01:36:18.922Z,14.05
2018-03-29T01:36:50.885Z,12.68
2018-03-29T01:37:22.518Z,14.05
2018-03-29T01:37:54.134Z,13.60
2018-03-29T01:38:25.794Z,14.38
2018-03-29T01:38:57.465Z,13.65
2018-03-29T01:39:29.094Z,14.02
2018-03-29T01:40:00.753Z,13.88
2018-03-29T01:40:32.369Z,13.90
2018-03-29T01:41:04.024Z,13.95
2018-03-29T01:41:35.661Z,13.40
2018-03-29T01:42:07.279Z,14.18
2018-03-29T01:42:38.942Z,14.43
2018-03-29T01:43:10.556Z,14.50
2018-03-29T01:43:42.171Z,13.77
2018-03-29T01:44:13.799Z,13.73
2018-03-29T01:44:45.443Z,13.75
2018-03-29T01:45:17.089Z,14.07
2018-03-29T01:45:48.736Z,14.90
2018-03-29T01:46:20.376Z,14.23
2018-03-29T01:46:52.050Z,14.70
2018-03-29T01:47:23.676Z,15.00
2018-03-29T01:47:55.315Z,15.20
2018-03-29T01:48:26.968Z,14.75
2018-03-29T01:48:58.599Z,15.02
2018-03-29T01:49:30.219Z,15.23
2018-03-29T01:50:01.855Z,15.52
2018-03-29T01:50:33.494Z,14.80
2018-03-29T01:51:05.123Z,14.77
2018-03-29T01:51:36.775Z,15.35
2018-03-29T01:52:08.470Z,14.43
2018-03-29T01:52:40.127Z,15.07
2018-03-29T01:53:11.752Z,15.68
2018-03-29T01:53:43.390Z,14.57
2018-03-29T01:54:15.023Z,15.32
2018-03-29T01:54:46.677Z,15.50
2018-03-29T01:55:18.305Z,14.75
2018-03-29T01:55:49.950Z,15.20
2018-03-29T01:56:21.574Z,15.55
2018-03-29T01:56:53.188Z,14.80
2018-03-29T01:57:24.841Z,15.43
2018-03-29T01:57:56.452Z,16.08
2018-03-29T01:58:28.075Z,15.73
2018-03-29T01:58:59.684Z,15.80
2018-03-29T01:59:31.323Z,17.62
2018-03-29T02:00:03.042Z,16.15
2018-03-29T02:00:34.686Z,16.42
2018-03-29T02:01:06.339Z,16.77
2018-03-29T02:01:37.994Z,14.75
2018-03-29T02:02:09.678Z,15.90
2018-03-29T02:02:41.308Z,15.57
2018-03-29T02:03:12.962Z,17.55
2018-03-29T02:03:44.638Z,16.83
2018-03-29T02:04:16.339Z,15.73
2018-03-29T02:04:48.010Z,17.73
2018-03-29T02:05:19.655Z,16.27
2018-03-29T02:05:51.318Z,16.42
2018-03-29T02:06:22.947Z,16.80
2018-03-29T02:06:54.589Z,17.33
2018-03-29T02:07:26.227Z,16.73
2018-03-29T02:07:57.850Z,16.45
2018-03-29T02:08:29.523Z,16.52
2018-03-29T02:09:01.230Z,16.60
2018-03-29T02:09:32.860Z,16.67
2018-03-29T02:10:04.514Z,16.10
2018-03-29T02:10:36.170Z,16.30
2018-03-29T02:11:07.808Z,16.73
2018-03-29T02:11:39.475Z,15.75
2018-03-29T02:12:11.187Z,16.35
2018-03-29T02:12:42.898Z,16.87
2018-03-29T02:13:14.565Z,15.10
2018-03-29T02:13:46.217Z,15.82
2018-03-29T02:14:17.852Z,16.45
2018-03-29T02:14:49.481Z,16.70
2018-03-29T02:15:21.123Z,16.08
2018-03-29T02:15:52.782Z,17.65
2018-03-29T02:16:24.445Z,16.27
2018-03-29T02:16:56.108Z,18.17
2018-03-29T02:17:27.768Z,15.93
2018-03-29T02:17:59.416Z,16.50
2018-03-29T02:18:31.120Z,16.12
2018-03-29T02:19:02.739Z,16.58
2018-03-29T02:19:34.348Z,15.27
2018-03-29T02:20:05.977Z,17.23
2018-03-29T02:20:37.616Z,16.75
2018-03-29T02:21:09.313Z,14.98
2018-03-29T02:21:40.963Z,15.93
2018-03-29T02:22:12.605Z,15.98
2018-03-29T02:22:44.248Z,16.52
2018-03-29T02:23:15.874Z,15.30
2018-03-29T02:23:47.510Z,16.70
2018-03-29T02:24:19.223Z,15.77
2018-03-29T02:24:50.881Z,15.98
2018-03-29T02:25:22.519Z,15.70
2018-03-29T02:25:54.175Z,15.13
2018-03-29T02:26:25.801Z,15.13
2018-03-29T02:26:57.481Z,15.48
2018-03-29T02:27:29.160Z,16.05
2018-03-29T02:28:00.789Z,17.05
2018-03-29T02:28:32.449Z,15.35
2018-03-29T02:29:04.082Z,16.67
2018-03-29T02:29:35.749Z,15.68
2018-03-29T02:30:07.373Z,15.23
2018-03-29T02:30:39.042Z,15.85
2018-03-29T02:31:10.709Z,17.23
2018-03-29T02:31:42.346Z,16.15
2018-03-29T02:32:13.983Z,15.13
2018-03-29T02:32:45.609Z,16.77
2018-03-29T02:33:17.232Z,16.67
2018-03-29T02:33:48.885Z,15.93
2018-03-29T02:34:20.508Z,15.82
2018-03-29T02:34:52.130Z,15.52
2018-03-29T02:35:23.793Z,14.68
2018-03-29T02:35:55.458Z,16.40
2018-03-29T02:36:27.090Z,15.77
2018-03-29T02:36:58.796Z,15.45
2018-03-29T02:37:30.420Z,14.70
2018-03-29T02:38:02.037Z,15.90
2018-03-29T02:38:33.673Z,16.70
2018-03-29T02:39:05.345Z,16.17
2018-03-29T02:39:36.991Z,15.90
2018-03-29T02:40:08.626Z,16.67
2018-03-29T02:40:40.247Z,14.75
2018-03-29T02:41:11.950Z,15.63
2018-03-29T02:41:43.608Z,15.20
2018-03-29T02:42:15.250Z,15.20
2018-03-29T02:42:46.874Z,15.73
2018-03-29T02:43:18.550Z,14.35
2018-03-29T02:43:50.197Z,14.32
2018-03-29T02:44:21.822Z,14.20
2018-03-29T02:44:53.462Z,14.68
2018-03-29T02:45:25.112Z,16.73
2018-03-29T02:45:56.747Z,15.68
2018-03-29T02:46:28.365Z,16.30
2018-03-29T02:46:59.968Z,15.73
2018-03-29T02:47:31.619Z,15.38
2018-03-29T02:48:03.327Z,16.27
2018-03-29T02:48:34.959Z,15.82
2018-03-29T02:49:06.580Z,15.15
2018-03-29T02:49:38.205Z,15.07
2018-03-29T02:50:09.893Z,15.18
2018-03-29T02:50:41.530Z,15.82
2018-03-29T02:51:13.181Z,14.73
2018-03-29T02:51:44.801Z,14.95
2018-03-29T02:52:16.441Z,15.73
2018-03-29T02:52:48.096Z,14.48
2018-03-29T02:53:19.720Z,15.13
2018-03-29T02:53:51.401Z,14.48
2018-03-29T02:54:23.028Z,14.30
2018-03-29T02:54:54.652Z,14.23
2018-03-29T02:55:26.304Z,15.07
2018-03-29T02:55:57.942Z,14.50
2018-03-29T02:56:29.557Z,15.65
2018-03-29T02:57:01.180Z,15.02
2018-03-29T02:57:32.838Z,14.40
2018-03-29T02:58:04.474Z,14.52
2018-03-29T02:58:36.149Z,13.77
2018-03-29T02:59:07.791Z,15.40
2018-03-29T02:59:39.407Z,14.82
2018-03-29T03:00:11.097Z,15.25
2018-03-29T03:00:42.789Z,15.40
2018-03-29T03:01:14.418Z,14.60
2018-03-29T03:01:46.076Z,16.35
2018-03-29T03:02:17.720Z,15.85
2018-03-29T03:02:49.374Z,15.88
2018-03-29T03:03:21.032Z,16.25
2018-03-29T03:03:52.711Z,15.00
2018-03-29T03:04:24.330Z,13.73
2018-03-29T03:04:55.968Z,14.68
2018-03-29T03:05:27.613Z,14.95
2018-03-29T03:05:59.276Z,16.20
2018-03-29T03:06:30.913Z,16.15
2018-03-29T03:07:02.591Z,14.65
2018-03-29T03:07:34.212Z,15.18
2018-03-29T03:08:05.841Z,14.45
2018-03-29T03:08:37.485Z,14.95
2018-03-29T03:09:09.197Z,14.30
2018-03-29T03:09:40.839Z,14.75
2018-03-29T03:10:12.467Z,15.40
2018-03-29T03:10:44.080Z,15.02
2018-03-29T03:11:15.743Z,15.25
2018-03-29T03:11:47.393Z,14.20
2018-03-29T03:12:19.011Z,14.65
2018-03-29T03:12:50.641Z,15.45
2018-03-29T03:13:22.276Z,15.90
2018-03-29T03:13:53.921Z,14.80
2018-03-29T03:14:25.603Z,14.98
2018-03-29T03:14:57.220Z,16.77
2018-03-29T03:15:28.885Z,15.15
2018-03-29T03:16:00.527Z,16.20
2018-03-29T03:16:32.149Z,15.82
2018-03-29T03:17:03.760Z,16.00
2018-03-29T03:17:35.393Z,16.70
2018-03-29T03:18:07.033Z,15.63
2018-03-29T03:18:38.657Z,15.15
2018-03-29T03:19:10.268Z,16.12
2018-03-29T03:19:41.930Z,15.95
2018-03-29T03:20:13.599Z,15.55
2018-03-29T03:20:45.249Z,16.70
2018-03-29T03:21:16.879Z,15.65
2018-03-29T03:21:48.495Z,15.98
2018-03-29T03:22:20.157Z,15.32
2018-03-29T03:22:51.761Z,16.75
2018-03-29T03:23:23.409Z,15.98
2018-03-29T03:23:55.084Z,16.00
2018-03-29T03:24:26.701Z,15.95
2018-03-29T03:24:58.389Z,16.80
2018-03-29T03:25:30.019Z,15.48
2018-03-29T03:26:01.658Z,17.15
2018-03-29T03:26:33.293Z,16.58
2018-03-29T03:27:04.963Z,17.10
2018-03-29T03:27:36.610Z,16.92
2018-03-29T03:28:08.249Z,17.45
2018-03-29T03:28:39.917Z,16.70
2018-03-29T03:29:11.550Z,16.60
2018-03-29T03:29:43.167Z,17.62
2018-03-29T03:30:14.802Z,17.37
2018-03-29T03:30:46.447Z,17.10
2018-03-29T03:31:18.063Z,16.37
2018-03-29T03:31:49.735Z,16.40
2018-03-29T03:32:21.369Z,16.65
2018-03-29T03:32:52.998Z,16.58
2018-03-29T03:33:24.615Z,16.90
2018-03-29T03:33:56.249Z,16.80
2018-03-29T03:34:27.882Z,16.05
2018-03-29T03:34:59.537Z,17.60
2018-03-29T03:35:31.167Z,16.70
2018-03-29T03:36:02.839Z,16.12
2018-03-29T03:36:34.487Z,16.65
2018-03-29T03:37:06.173Z,15.82
2018-03-29T03:37:37.799Z,17.33
2018-03-29T03:38:09.453Z,17.05
2018-03-29T03:38:41.107Z,16.67
2018-03-29T03:39:12.743Z,17.40
2018-03-29T03:39:44.401Z,16.60
2018-03-29T03:40:16.035Z,16.67
2018-03-29T03:40:47.725Z,16.10
2018-03-29T03:41:19.345Z,17.20
2018-03-29T03:41:50.971Z,17.90
2018-03-29T03:42:22.588Z,17.30
2018-03-29T03:42:54.225Z,16.05
2018-03-29T03:43:25.853Z,16.17
2018-03-29T03:43:57.480Z,17.52
2018-03-29T03:44:29.203Z,18.23
2018-03-29T03:45:00.897Z,17.15
2018-03-29T03:45:32.555Z,16.45
2018-03-29T03:46:04.191Z,17.85
2018-03-29T03:46:35.821Z,16.98
2018-03-29T03:47:07.457Z,17.95
2018-03-29T03:47:39.076Z,17.23
2018-03-29T03:48:10.725Z,18.12
2018-03-29T03:48:42.364Z,18.70
2018-03-29T03:49:14.021Z,18.83
2018-03-29T03:49:45.637Z,18.48
2018-03-29T03:50:17.273Z,18.30
2018-03-29T03:50:48.971Z,17.83
2018-03-29T03:51:20.607Z,17.48
2018-03-29T03:51:52.233Z,18.10
2018-03-29T03:52:23.861Z,17.70
2018-03-29T03:52:55.501Z,19.12
2018-03-29T03:53:27.178Z,17.35
2018-03-29T03:53:58.791Z,16.37
2018-03-29T03:54:30.419Z,18.92
2018-03-29T03:55:02.053Z,17.08
2018-03-29T03:55:33.695Z,17.05
2018-03-29T03:56:05.323Z,17.00
2018-03-29T03:56:37.015Z,15.73
2018-03-29T03:57:08.657Z,17.83
2018-03-29T03:57:40.297Z,17.35
2018-03-29T03:58:11.930Z,16.92
2018-03-29T03:58:43.553Z,17.08
2018-03-29T03:59:15.195Z,18.58
2018-03-29T03:59:46.846Z,17.73
2018-03-29T04:00:18.492Z,18.58
2018-03-29T04:00:50.145Z,16.48
2018-03-29T04:01:21.773Z,17.08
2018-03-29T04:01:53.458Z,17.62
2018-03-29T04:02:25.141Z,16.50
2018-03-29T04:02:56.768Z,17.48
2018-03-29T04:03:28.409Z,17.17
2018-03-29T04:04:00.041Z,17.42
2018-03-29T04:04:31.691Z,17.25
2018-03-29T04:05:03.362Z,17.30
2018-03-29T04:05:35.005Z,17.00
2018-03-29T04:06:06.631Z,17.52
2018-03-29T04:06:38.329Z,16.77
2018-03-29T04:07:09.981Z,17.60
2018-03-29T04:07:41.617Z,17.27
2018-03-29T04:08:13.321Z,16.58
2018-03-29T04:08:44.933Z,16.55
2018-03-29T04:09:16.585Z,16.02
2018-03-29T04:09:48.241Z,17.35
2018-03-29T04:10:19.859Z,16.73
2018-03-29T04:10:51.551Z,17.00
2018-03-29T04:11:23.220Z,17.65
2018-03-29T04:11:54.853Z,15.25
2018-03-29T04:12:26.508Z,16.30
2018-03-29T04:12:58.174Z,16.33
2018-03-29T04:13:29.833Z,16.40
2018-03-29T04:14:01.483Z,16.08
2018-03-29T04:14:33.146Z,15.15
2018-03-29T04:15:04.797Z,15.15
2018-03-29T04:15:36.443Z,15.23
2018-03-29T04:16:08.156Z,15.77
2018-03-29T04:16:39.797Z,14.98
2018-03-29T04:17:11.408Z,15.07
2018-03-29T04:17:43.060Z,15.30
2018-03-29T04:18:14.676Z,15.07
2018-03-29T04:18:46.342Z,14.65
2018-03-29T04:19:17.989Z,14.63
2018-03-29T04:19:49.627Z,13.93
2018-03-29T04:20:21.241Z,16.42
2018-03-29T04:20:52.860Z,15.50
2018-03-29T04:21:24.509Z,15.35
2018-03-29T04:21:56.156Z,15.15
2018-03-29T04:22:27.793Z,15.00
2018-03-29T04:22:59.412Z,15.15
2018-03-29T04:23:31.089Z,14.68
2018-03-29T04:24:02.719Z,15.27
2018-03-29T04:24:34.417Z,15.43
2018-03-29T04:25:06.051Z,14.20
2018-03-29T04:25:37.681Z,15.30
2018-03-29T04:26:09.303Z,15.13
2018-03-29T04:26:40.917Z,14.52
2018-03-29T04:27:12.537Z,14.18
2018-03-29T04:27:44.307Z,15.98
2018-03-29T04:28:15.937Z,14.68
2018-03-29T04:28:47.593Z,14.02
2018-03-29T04:29:19.248Z,14.38
2018-03-29T04:29:50.873Z,14.73
2018-03-29T04:30:22.584Z,15.20
2018-03-29T04:30:54.223Z,15.50
2018-03-29T04:31:25.909Z,15.02
2018-03-29T04:31:57.553Z,14.90
2018-03-29T04:32:29.208Z,14.70
2018-03-29T04:33:00.881Z,15.20
2018-03-29T04:33:32.561Z,15.00
2018-03-29T04:34:04.174Z,14.18
2018-03-29T04:34:35.858Z,15.27
2018-03-29T04:35:07.541Z,15.25
2018-03-29T04:35:39.217Z,14.77
2018-03-29T04:36:10.867Z,15.48
2018-03-29T04:36:42.502Z,14.87
2018-03-29T04:37:14.119Z,15.55
2018-03-29T04:37:45.745Z,15.00
2018-03-29T04:38:17.390Z,14.43
2018-03-29T04:38:49.047Z,15.85
2018-03-29T04:39:20.672Z,15.40
2018-03-29T04:39:52.379Z,14.98
2018-03-29T04:40:24.045Z,15.23
2018-03-29T04:40:55.680Z,14.98
2018-03-29T04:41:27.325Z,14.98
2018-03-29T04:41:58.941Z,14.87
2018-03-29T04:42:30.569Z,15.43
2018-03-29T04:43:02.191Z,14.55
2018-03-29T04:43:33.797Z,15.30
2018-03-29T04:44:05.417Z,14.60
2018-03-29T04:44:37.053Z,15.05
2018-03-29T04:45:08.705Z,15.40
2018-03-29T04:45:40.349Z,13.95
2018-03-29T04:46:12.015Z,14.55
2018-03-29T04:46:43.693Z,14.90
2018-03-29T04:47:15.334Z,14.45
2018-03-29T04:47:46.978Z,14.50
2018-03-29T04:48:18.711Z,14.87
2018-03-29T04:48:50.321Z,14.38
2018-03-29T04:49:21.957Z,14.93
2018-03-29T04:49:53.589Z,14.70
2018-03-29T04:50:25.219Z,15.48
2018-03-29T04:50:56.862Z,15.02
2018-03-29T04:51:28.543Z,14.43
2018-03-29T04:52:00.167Z,13.55
2018-03-29T04:52:31.810Z,14.00
2018-03-29T04:53:03.446Z,14.63
2018-03-29T04:53:35.084Z,14.60
2018-03-29T04:54:06.775Z,14.55
2018-03-29T04:54:38.393Z,14.63
2018-03-29T04:55:10.049Z,15.07
2018-03-29T04:55:41.688Z,14.20
2018-03-29T04:56:13.350Z,14.98
2018-03-29T04:56:44.990Z,14.05
2018-03-29T04:57:16.629Z,14.25
2018-03-29T04:57:48.276Z,13.93
2018-03-29T04:58:19.920Z,13.90
2018-03-29T04:58:51.540Z,14.57
2018-03-29T04:59:23.181Z,14.38
2018-03-29T04:59:54.809Z,14.55
2018-03-29T05:00:26.435Z,15.00
2018-03-29T05:00:58.092Z,13.88
2018-03-29T05:01:29.742Z,14.48
2018-03-29T05:02:01.435Z,13.45
2018-03-29T05:02:33.052Z,14.00
2018-03-29T05:03:04.672Z,13.73
2018-03-29T05:03:36.296Z,14.38
2018-03-29T05:04:07.932Z,14.00
2018-03-29T05:04:39.572Z,13.85
2018-03-29T05:05:11.220Z,13.62
2018-03-29T05:05:42.886Z,14.52
2018-03-29T05:06:14.531Z,14.90
2018-03-29T05:06:46.189Z,13.98
2018-03-29T05:07:17.833Z,14.43
2018-03-29T05:07:49.476Z,14.50
2018-03-29T05:08:21.120Z,14.20
2018-03-29T05:08:52.796Z,15.48
2018-03-29T05:09:24.431Z,14.40
2018-03-29T05:09:56.075Z,14.75
2018-03-29T05:10:27.687Z,15.30
2018-03-29T05:10:59.457Z,15.25
2018-03-29T05:11:31.100Z,14.93
2018-03-29T05:12:02.755Z,15.70
2018-03-29T05:12:34.401Z,15.55
2018-03-29T05:13:06.035Z,15.35
2018-03-29T05:13:37.703Z,16.12
2018-03-29T05:14:09.317Z,18.05
2018-03-29T05:14:40.992Z,15.95
2018-03-29T05:15:12.635Z,16.45
2018-03-29T05:15:44.268Z,15.60
2018-03-29T05:16:15.951Z,17.12
2018-03-29T05:16:47.593Z,16.30
2018-03-29T05:17:19.221Z,17.12
2018-03-29T05:17:50.846Z,17.08
2018-03-29T05:18:22.503Z,16.52
2018-03-29T05:18:54.152Z,16.27
2018-03-29T05:19:25.776Z,16.35
2018-03-29T05:19:57.436Z,16.58
2018-03-29T05:20:29.090Z,17.60
2018-03-29T05:21:00.720Z,18.60
2018-03-29T05:21:32.361Z,16.87
2018-03-29T05:22:04.014Z,17.30
2018-03-29T05:22:35.624Z,17.02
2018-03-29T05:23:07.298Z,17.30
2018-03-29T05:23:38.953Z,17.27
2018-03-29T05:24:10.590Z,17.42
2018-03-29T05:24:42.287Z,18.42
2018-03-29T05:25:13.936Z,17.50
2018-03-29T05:25:45.594Z,17.67
2018-03-29T05:26:17.229Z,17.30
2018-03-29T05:26:48.910Z,17.87
2018-03-29T05:27:25.612Z,17.80
2018-03-29T05:27:57.255Z,19.80
2018-03-29T05:28:28.850Z,20.25
2018-03-29T05:29:00.503Z,19.08
2018-03-29T05:29:32.186Z,19.58
2018-03-29T05:30:03.872Z,18.67
2018-03-29T05:30:35.533Z,19.02
2018-03-29T05:31:07.165Z,17.12
2018-03-29T05:31:38.854Z,17.58
2018-03-29T05:32:10.496Z,18.00
2018-03-29T05:32:42.106Z,18.42
2018-03-29T05:33:13.743Z,17.95
2018-03-29T05:33:45.451Z,18.05
2018-03-29T05:34:17.077Z,18.85
2018-03-29T05:34:48.730Z,17.30
2018-03-29T05:35:20.343Z,19.05
2018-03-29T05:35:52.020Z,17.83
2018-03-29T05:36:23.651Z,17.65
2018-03-29T05:36:55.293Z,18.83
2018-03-29T05:37:26.943Z,18.37
2018-03-29T05:37:58.573Z,19.50
2018-03-29T05:38:30.225Z,17.75
2018-03-29T05:39:01.853Z,19.08
2018-03-29T05:39:33.489Z,19.08
2018-03-29T05:40:05.116Z,17.25
2018-03-29T05:40:36.732Z,19.17
2018-03-29T05:41:08.371Z,17.73
2018-03-29T05:41:40.009Z,17.70
2018-03-29T05:42:11.627Z,17.80
2018-03-29T05:42:43.278Z,18.17
2018-03-29T05:43:14.904Z,18.92
2018-03-29T05:43:46.553Z,18.33
2018-03-29T05:44:18.192Z,19.00
2018-03-29T05:44:49.820Z,19.40
2018-03-29T05:45:21.500Z,18.85
2018-03-29T05:45:53.120Z,19.95
2018-03-29T05:46:24.732Z,19.90
2018-03-29T05:46:56.352Z,17.60
2018-03-29T05:47:28.000Z,18.52
2018-03-29T05:47:59.677Z,19.92
2018-03-29T05:48:31.408Z,18.85
2018-03-29T05:49:03.078Z,18.05
2018-03-29T05:49:34.709Z,18.83
2018-03-29T05:50:06.339Z,20.10
2018-03-29T05:50:37.973Z,19.55
2018-03-29T05:51:09.617Z,20.30
2018-03-29T05:51:41.225Z,18.42
2018-03-29T05:52:12.886Z,18.95
2018-03-29T05:52:44.486Z,18.20
2018-03-29T05:53:16.119Z,17.65
2018-03-29T05:53:47.778Z,18.75
2018-03-29T05:54:19.456Z,18.80
2018-03-29T05:54:51.141Z,19.45
2018-03-29T05:55:22.751Z,18.33
2018-03-29T05:55:54.398Z,19.58
2018-03-29T05:56:26.031Z,18.30
2018-03-29T05:56:57.659Z,18.05
2018-03-29T05:57:29.341Z,19.27
2018-03-29T05:58:00.967Z,19.95
2018-03-29T05:58:32.587Z,19.48
2018-03-29T05:59:04.213Z,20.40
2018-03-29T05:59:35.888Z,20.33
2018-03-29T06:00:07.597Z,19.65
2018-03-29T06:00:39.216Z,19.67
2018-03-29T06:01:10.890Z,20.25
2018-03-29T06:01:42.557Z,20.77
2018-03-29T06:02:14.192Z,19.67
2018-03-29T06:02:45.817Z,19.85
2018-03-29T06:03:17.423Z,19.92
2018-03-29T06:03:49.092Z,19.67
2018-03-29T06:04:20.743Z,19.87
2018-03-29T06:04:52.383Z,20.17
2018-03-29T06:05:24.006Z,20.35
2018-03-29T06:05:55.681Z,20.20
2018-03-29T06:06:27.316Z,21.20
2018-03-29T06:06:58.984Z,20.27
2018-03-29T06:07:30.625Z,20.45
2018-03-29T06:08:02.279Z,20.88
2018-03-29T06:08:33.901Z,20.52
2018-03-29T06:09:05.557Z,19.70
2018-03-29T06:09:37.249Z,21.73
2018-03-29T06:10:08.912Z,21.83
2018-03-29T06:10:40.560Z,22.70
2018-03-29T06:11:12.210Z,22.08
2018-03-29T06:11:43.865Z,22.13
2018-03-29T06:12:15.533Z,22.27
2018-03-29T06:12:47.208Z,24.50
2018-03-29T06:13:18.818Z,24.30
2018-03-29T06:13:56.652Z,23.15
2018-03-29T06:14:34.353Z,23.00
2018-03-29T06:15:12.235Z,23.95
2018-03-29T06:15:43.918Z,22.52
2018-03-29T06:16:16.593Z,23.92
2018-03-29T06:16:48.276Z,22.83
2018-03-29T06:17:25.991Z,22.98
2018-03-29T06:17:59.673Z,22.58
2018-03-29T06:18:31.359Z,22.77
2018-03-29T06:19:08.001Z,23.00
2018-03-29T06:19:39.640Z,22.02
2018-03-29T06:20:11.309Z,22.50
2018-03-29T06:20:42.927Z,21.62
2018-03-29T06:21:14.564Z,21.20
2018-03-29T06:21:46.206Z,20.45
2018-03-29T06:22:17.856Z,21.08
2018-03-29T06:22:49.502Z,22.67
2018-03-29T06:23:21.140Z,22.52
2018-03-29T06:23:52.747Z,22.30
2018-03-29T06:24:24.414Z,20.50
2018-03-29T06:24:56.102Z,21.33
2018-03-29T06:25:27.722Z,20.60
2018-03-29T06:25:59.347Z,22.13
2018-03-29T06:26:30.990Z,21.60
2018-03-29T06:27:02.626Z,22.77
2018-03-29T06:27:34.253Z,21.55
2018-03-29T06:28:05.881Z,22.75
2018-03-29T06:28:37.525Z,21.90
2018-03-29T06:29:09.152Z,23.05
2018-03-29T06:29:40.821Z,21.23
2018-03-29T06:30:12.492Z,21.87
2018-03-29T06:30:44.129Z,21.85
2018-03-29T06:31:15.758Z,21.50
2018-03-29T06:31:47.373Z,21.58
2018-03-29T06:32:19.059Z,22.92
2018-03-29T06:32:50.683Z,22.50
2018-03-29T06:33:22.328Z,21.90
2018-03-29T06:33:53.962Z,22.02
2018-03-29T06:34:25.620Z,21.83
2018-03-29T06:34:57.234Z,22.15
2018-03-29T06:35:28.856Z,21.95
2018-03-29T06:36:00.492Z,21.08
2018-03-29T06:36:32.111Z,22.80
2018-03-29T06:37:03.752Z,21.70
2018-03-29T06:37:35.402Z,20.92
2018-03-29T06:38:07.049Z,23.38
2018-03-29T06:38:38.740Z,23.12
2018-03-29T06:39:10.322Z,22.23
2018-03-29T06:39:41.971Z,22.65
2018-03-29T06:40:13.596Z,22.25
2018-03-29T06:40:45.240Z,22.58
2018-03-29T06:41:16.892Z,22.17
2018-03-29T06:41:48.544Z,24.67
2018-03-29T06:42:20.190Z,21.90
2018-03-29T06:42:51.795Z,22.08
2018-03-29T06:43:23.445Z,22.77
2018-03-29T06:43:55.074Z,23.12
2018-03-29T06:44:26.766Z,23.42
2018-03-29T06:44:58.375Z,23.75
2018-03-29T06:45:30.005Z,23.80
2018-03-29T06:46:01.654Z,23.75
2018-03-29T06:46:33.337Z,22.05
2018-03-29T06:47:05.037Z,23.87
2018-03-29T06:47:36.696Z,22.50
2018-03-29T06:48:08.359Z,24.83
2018-03-29T06:48:40.041Z,23.65
2018-03-29T06:49:11.667Z,24.30
2018-03-29T06:49:43.278Z,25.48
2018-03-29T06:50:14.945Z,25.80